This is the latest recevied weather packets stored in our database for station/object SQ4LOL-13. If no packets are shown the sender has not sent any weather packets the latest 10 day(s).
| Time | Temp. | Humidity | Pressure | Rain* | Wind** | Luminosity | Snow |
|---|---|---|---|---|---|---|---|
| 1777851643 | 14.44° C | 51% | 996.8 hPa | 0 mm | - | - | - |
| 1777848032 | 14.44° C | 49% | 996.8 hPa | 0 mm | - | - | - |
| 1777847429 | 14.44° C | 49% | 996.8 hPa | 0 mm | - | - | - |
| 1777845623 | 15° C | 48% | 996.8 hPa | 0 mm | - | - | - |
| 1777842613 | 16.11° C | 45% | 997.1 hPa | 0 mm | - | - | - |
| 1777840206 | 17.22° C | 42% | 997.1 hPa | 0 mm | - | - | - |
| 1777837496 | 18.33° C | 40% | 997 hPa | 0 mm | - | - | - |
| 1777823651 | 26.67° C | 29% | 996.9 hPa | 0 mm | - | - | - |
| 1777752616 | 13.89° C | 54% | 1001.1 hPa | 0 mm | - | - | - |
| 1777747497 | 18.33° C | 43% | 1001.2 hPa | 0 mm | - | - | - |
| 1777744788 | 21.11° C | 38% | 1000.8 hPa | 0 mm | - | - | - |
| 1777741782 | 23.33° C | 34% | 1001.1 hPa | 0 mm | - | - | - |
| 1777736962 | 25.56° C | 29% | 1001.6 hPa | 0 mm | - | - | - |
| 1777727330 | 27.22° C | 31% | 1003.2 hPa | 0 mm | - | - | - |
| 1777721915 | 23.33° C | 37% | 1004.7 hPa | 0 mm | - | - | - |
| 1777720107 | 21.67° C | 39% | 1004.9 hPa | 0 mm | - | - | - |
| 1777718342 | 21.11° C | 40% | 1005.2 hPa | 0 mm | - | - | - |
| 1777716514 | 20.56° C | 44% | 1005.6 hPa | 0 mm | - | - | - |
| 1777714691 | 20° C | 45% | 1005.8 hPa | 0 mm | - | - | - |
| 1777711679 | 18.89° C | 49% | 1006.4 hPa | 0 mm | - | - | - |
| 1777708669 | 16.67° C | 56% | 1006.6 hPa | 0 mm | - | - | - |
| 1777706261 | 15° C | 62% | 1006.8 hPa | 0 mm | - | - | - |
| 1777701445 | 11.11° C | 71% | 1006.9 hPa | 0 mm | - | - | - |
| 1777700844 | 10.56° C | 72% | 1006.9 hPa | 0 mm | - | - | - |
| 1777699639 | 9.44° C | 76% | 1006.9 hPa | 0 mm | - | - | - |
* Rain latest hour (hover to see other rain measurements)
** Current wind speed in m/s (hover to see current wind gust speed)